sensor_id;sensor_type;location;lat;lon;timestamp;P1;durP1;ratioP1;P2;durP2;ratioP2
26946;SDS011;14501;52.282;10.560;2023-07-31T00:02:14;6.60;;;2.60;;
26946;SDS011;14501;52.282;10.560;2023-07-31T00:04:39;6.75;;;2.50;;
26946;SDS011;14501;52.282;10.560;2023-07-31T00:07:05;711.72;;;359.73;;
26946;SDS011;14501;52.282;10.560;2023-07-31T00:09:32;9.05;;;3.28;;
26946;SDS011;14501;52.282;10.560;2023-07-31T00:11:58;5.75;;;2.72;;
26946;SDS011;14501;52.282;10.560;2023-07-31T00:14:24;5.13;;;2.10;;
26946;SDS011;14501;52.282;10.560;2023-07-31T00:16:49;4.53;;;2.38;;
26946;SDS011;14501;52.282;10.560;2023-07-31T00:19:15;3.65;;;2.63;;
26946;SDS011;14501;52.282;10.560;2023-07-31T00:21:40;5.97;;;2.55;;
26946;SDS011;14501;52.282;10.560;2023-07-31T00:24:06;6.03;;;2.65;;
26946;SDS011;14501;52.282;10.560;2023-07-31T00:26:32;7.28;;;2.72;;
26946;SDS011;14501;52.282;10.560;2023-07-31T00:28:57;7.60;;;2.55;;
26946;SDS011;14501;52.282;10.560;2023-07-31T00:31:23;6.25;;;2.58;;
26946;SDS011;14501;52.282;10.560;2023-07-31T00:33:48;9.10;;;2.45;;
26946;SDS011;14501;52.282;10.560;2023-07-31T00:36:14;8.52;;;3.10;;
26946;SDS011;14501;52.282;10.560;2023-07-31T00:38:39;6.57;;;2.72;;
26946;SDS011;14501;52.282;10.560;2023-07-31T00:41:05;5.20;;;3.03;;
26946;SDS011;14501;52.282;10.560;2023-07-31T00:43:31;4.55;;;2.55;;
26946;SDS011;14501;52.282;10.560;2023-07-31T00:45:56;4.50;;;2.40;;
26946;SDS011;14501;52.282;10.560;2023-07-31T00:48:22;3.30;;;2.13;;
26946;SDS011;14501;52.282;10.560;2023-07-31T00:50:48;6.35;;;2.47;;
26946;SDS011;14501;52.282;10.560;2023-07-31T00:53:14;6.90;;;3.17;;
26946;SDS011;14501;52.282;10.560;2023-07-31T00:55:40;11.20;;;2.70;;
26946;SDS011;14501;52.282;10.560;2023-07-31T00:58:06;5.00;;;2.58;;
26946;SDS011;14501;52.282;10.560;2023-07-31T01:00:31;8.10;;;3.15;;
26946;SDS011;14501;52.282;10.560;2023-07-31T01:02:57;6.05;;;2.90;;
26946;SDS011;14501;52.282;10.560;2023-07-31T01:05:33;5.57;;;2.25;;
26946;SDS011;14501;52.282;10.560;2023-07-31T01:11:10;11.70;;;3.20;;
26946;SDS011;14501;52.282;10.560;2023-07-31T01:13:42;4.53;;;2.38;;
26946;SDS011;14501;52.282;10.560;2023-07-31T01:16:09;6.53;;;3.17;;
26946;SDS011;14501;52.282;10.560;2023-07-31T01:18:35;6.25;;;3.10;;
26946;SDS011;14501;52.282;10.560;2023-07-31T01:26:28;8.05;;;3.15;;
26946;SDS011;14501;52.282;10.560;2023-07-31T01:29:03;10.97;;;3.00;;
26946;SDS011;14501;52.282;10.560;2023-07-31T01:31:37;5.60;;;2.75;;
26946;SDS011;14501;52.282;10.560;2023-07-31T01:34:05;8.00;;;2.92;;
26946;SDS011;14501;52.282;10.560;2023-07-31T01:36:32;6.85;;;2.50;;
26946;SDS011;14501;52.282;10.560;2023-07-31T01:39:01;6.07;;;2.90;;
26946;SDS011;14501;52.282;10.560;2023-07-31T01:41:28;7.28;;;2.67;;
26946;SDS011;14501;52.282;10.560;2023-07-31T01:43:53;7.93;;;2.92;;
26946;SDS011;14501;52.282;10.560;2023-07-31T01:46:19;7.18;;;2.65;;
26946;SDS011;14501;52.282;10.560;2023-07-31T01:48:44;11.30;;;2.90;;
26946;SDS011;14501;52.282;10.560;2023-07-31T01:51:10;12.25;;;2.75;;
26946;SDS011;14501;52.282;10.560;2023-07-31T01:53:36;1542.40;;;789.40;;
26946;SDS011;14501;52.282;10.560;2023-07-31T01:56:01;6.65;;;2.28;;
26946;SDS011;14501;52.282;10.560;2023-07-31T01:58:27;4.97;;;2.45;;
26946;SDS011;14501;52.282;10.560;2023-07-31T02:00:52;4.22;;;2.40;;
26946;SDS011;14501;52.282;10.560;2023-07-31T02:03:18;6.93;;;2.40;;
26946;SDS011;14501;52.282;10.560;2023-07-31T02:05:44;5.50;;;2.17;;
26946;SDS011;14501;52.282;10.560;2023-07-31T02:08:13;6.70;;;2.30;;
26946;SDS011;14501;52.282;10.560;2023-07-31T02:10:39;6.43;;;2.50;;
26946;SDS011;14501;52.282;10.560;2023-07-31T02:13:05;6.47;;;2.47;;
26946;SDS011;14501;52.282;10.560;2023-07-31T02:15:31;4.95;;;2.63;;
26946;SDS011;14501;52.282;10.560;2023-07-31T02:17:57;8.25;;;3.28;;
26946;SDS011;14501;52.282;10.560;2023-07-31T02:20:22;8.02;;;2.97;;
26946;SDS011;14501;52.282;10.560;2023-07-31T02:22:48;8.50;;;3.05;;
26946;SDS011;14501;52.282;10.560;2023-07-31T02:25:13;9.77;;;3.03;;
26946;SDS011;14501;52.282;10.560;2023-07-31T02:27:39;7.68;;;3.33;;
26946;SDS011;14501;52.282;10.560;2023-07-31T02:30:05;5.50;;;2.97;;
26946;SDS011;14501;52.282;10.560;2023-07-31T02:32:31;6.55;;;3.05;;
26946;SDS011;14501;52.282;10.560;2023-07-31T02:34:56;6.20;;;2.38;;
26946;SDS011;14501;52.282;10.560;2023-07-31T02:37:22;4.88;;;2.60;;
26946;SDS011;14501;52.282;10.560;2023-07-31T02:39:48;5.03;;;2.20;;
26946;SDS011;14501;52.282;10.560;2023-07-31T02:42:14;154.45;;;13.50;;
26946;SDS011;14501;52.282;10.560;2023-07-31T02:44:40;1903.28;;;193.00;;
26946;SDS011;14501;52.282;10.560;2023-07-31T02:47:05;2.05;;;1.70;;
26946;SDS011;14501;52.282;10.560;2023-07-31T02:49:31;2.70;;;1.70;;
26946;SDS011;14501;52.282;10.560;2023-07-31T02:51:57;1999.90;;;999.90;;
26946;SDS011;14501;52.282;10.560;2023-07-31T02:54:22;3.08;;;2.03;;
26946;SDS011;14501;52.282;10.560;2023-07-31T02:56:48;3.60;;;2.00;;
26946;SDS011;14501;52.282;10.560;2023-07-31T02:59:14;5.00;;;2.35;;
26946;SDS011;14501;52.282;10.560;2023-07-31T03:01:40;5.38;;;2.20;;
26946;SDS011;14501;52.282;10.560;2023-07-31T03:04:05;6.30;;;2.58;;
26946;SDS011;14501;52.282;10.560;2023-07-31T03:06:31;5.47;;;2.80;;
26946;SDS011;14501;52.282;10.560;2023-07-31T03:08:57;4.10;;;2.58;;
26946;SDS011;14501;52.282;10.560;2023-07-31T03:11:22;3.72;;;2.33;;
26946;SDS011;14501;52.282;10.560;2023-07-31T03:13:48;3.50;;;2.50;;
26946;SDS011;14501;52.282;10.560;2023-07-31T03:16:13;4.68;;;2.78;;
26946;SDS011;14501;52.282;10.560;2023-07-31T03:18:39;3.90;;;2.45;;
26946;SDS011;14501;52.282;10.560;2023-07-31T03:21:05;3.28;;;2.55;;
26946;SDS011;14501;52.282;10.560;2023-07-31T03:23:30;6.22;;;2.85;;
26946;SDS011;14501;52.282;10.560;2023-07-31T03:25:56;5.57;;;3.38;;
26946;SDS011;14501;52.282;10.560;2023-07-31T03:28:25;8.77;;;3.75;;
26946;SDS011;14501;52.282;10.560;2023-07-31T03:30:51;6.35;;;3.35;;
26946;SDS011;14501;52.282;10.560;2023-07-31T03:33:18;6.47;;;3.17;;
26946;SDS011;14501;52.282;10.560;2023-07-31T03:35:43;5.85;;;3.60;;
26946;SDS011;14501;52.282;10.560;2023-07-31T03:38:09;9.20;;;3.60;;
26946;SDS011;14501;52.282;10.560;2023-07-31T03:40:35;6.47;;;3.50;;
26946;SDS011;14501;52.282;10.560;2023-07-31T03:43:00;4.85;;;3.20;;
26946;SDS011;14501;52.282;10.560;2023-07-31T03:45:26;6.70;;;3.30;;
26946;SDS011;14501;52.282;10.560;2023-07-31T03:47:51;6.03;;;3.55;;
26946;SDS011;14501;52.282;10.560;2023-07-31T03:50:18;4.85;;;2.92;;
26946;SDS011;14501;52.282;10.560;2023-07-31T03:52:44;5.35;;;3.05;;
26946;SDS011;14501;52.282;10.560;2023-07-31T03:55:09;7.32;;;3.03;;
26946;SDS011;14501;52.282;10.560;2023-07-31T03:57:35;5.95;;;3.10;;
26946;SDS011;14501;52.282;10.560;2023-07-31T04:00:00;5.15;;;2.75;;
26946;SDS011;14501;52.282;10.560;2023-07-31T04:02:26;4.45;;;2.35;;
26946;SDS011;14501;52.282;10.560;2023-07-31T04:04:51;5.82;;;2.78;;
26946;SDS011;14501;52.282;10.560;2023-07-31T04:07:17;4.88;;;2.70;;
26946;SDS011;14501;52.282;10.560;2023-07-31T04:09:42;7.72;;;2.88;;
26946;SDS011;14501;52.282;10.560;2023-07-31T04:12:08;3.53;;;2.40;;
26946;SDS011;14501;52.282;10.560;2023-07-31T04:14:34;6.43;;;2.72;;
26946;SDS011;14501;52.282;10.560;2023-07-31T04:16:59;5.03;;;2.15;;
26946;SDS011;14501;52.282;10.560;2023-07-31T04:19:25;3.00;;;2.13;;
26946;SDS011;14501;52.282;10.560;2023-07-31T04:21:50;4.47;;;2.42;;
26946;SDS011;14501;52.282;10.560;2023-07-31T04:24:16;4.53;;;2.10;;
26946;SDS011;14501;52.282;10.560;2023-07-31T04:26:47;5.75;;;2.50;;
26946;SDS011;14501;52.282;10.560;2023-07-31T04:29:12;3.35;;;2.00;;
26946;SDS011;14501;52.282;10.560;2023-07-31T04:31:38;5.68;;;2.10;;
26946;SDS011;14501;52.282;10.560;2023-07-31T04:34:04;7.15;;;2.00;;
26946;SDS011;14501;52.282;10.560;2023-07-31T04:36:29;2.80;;;1.63;;
26946;SDS011;14501;52.282;10.560;2023-07-31T04:38:55;3.42;;;1.95;;
26946;SDS011;14501;52.282;10.560;2023-07-31T04:41:20;6.25;;;1.80;;
26946;SDS011;14501;52.282;10.560;2023-07-31T04:43:46;3.88;;;2.10;;
26946;SDS011;14501;52.282;10.560;2023-07-31T04:46:12;3.45;;;1.67;;
26946;SDS011;14501;52.282;10.560;2023-07-31T04:48:37;2.50;;;1.73;;
26946;SDS011;14501;52.282;10.560;2023-07-31T04:51:03;4.05;;;1.40;;
26946;SDS011;14501;52.282;10.560;2023-07-31T04:53:28;1.70;;;1.60;;
26946;SDS011;14501;52.282;10.560;2023-07-31T04:55:54;1.83;;;1.58;;
26946;SDS011;14501;52.282;10.560;2023-07-31T04:58:19;2.65;;;1.83;;
26946;SDS011;14501;52.282;10.560;2023-07-31T05:00:45;5.57;;;1.52;;
26946;SDS011;14501;52.282;10.560;2023-07-31T05:03:10;3.83;;;1.67;;
26946;SDS011;14501;52.282;10.560;2023-07-31T05:05:36;3.25;;;1.60;;
26946;SDS011;14501;52.282;10.560;2023-07-31T05:08:02;2.58;;;1.70;;
26946;SDS011;14501;52.282;10.560;2023-07-31T05:10:28;3.80;;;1.50;;
26946;SDS011;14501;52.282;10.560;2023-07-31T05:12:53;3.28;;;1.42;;
26946;SDS011;14501;52.282;10.560;2023-07-31T05:15:19;3.47;;;1.63;;
26946;SDS011;14501;52.282;10.560;2023-07-31T05:17:45;1.95;;;1.60;;
26946;SDS011;14501;52.282;10.560;2023-07-31T05:20:10;4.15;;;1.58;;
26946;SDS011;14501;52.282;10.560;2023-07-31T05:22:36;2.25;;;1.63;;
26946;SDS011;14501;52.282;10.560;2023-07-31T05:25:02;2.78;;;1.50;;
26946;SDS011;14501;52.282;10.560;2023-07-31T05:27:27;3.72;;;1.70;;
26946;SDS011;14501;52.282;10.560;2023-07-31T05:29:53;2.58;;;1.63;;
26946;SDS011;14501;52.282;10.560;2023-07-31T05:32:18;4.20;;;1.77;;
26946;SDS011;14501;52.282;10.560;2023-07-31T05:34:44;2.78;;;1.60;;
26946;SDS011;14501;52.282;10.560;2023-07-31T05:37:10;3.92;;;1.70;;
26946;SDS011;14501;52.282;10.560;2023-07-31T05:39:36;4.70;;;1.55;;
26946;SDS011;14501;52.282;10.560;2023-07-31T05:42:02;4.68;;;2.22;;
26946;SDS011;14501;52.282;10.560;2023-07-31T05:44:28;4.15;;;2.50;;
26946;SDS011;14501;52.282;10.560;2023-07-31T05:46:53;5.80;;;2.42;;
26946;SDS011;14501;52.282;10.560;2023-07-31T05:49:19;3.85;;;1.58;;
26946;SDS011;14501;52.282;10.560;2023-07-31T05:51:44;4.28;;;1.58;;
26946;SDS011;14501;52.282;10.560;2023-07-31T05:54:10;3.08;;;1.90;;
26946;SDS011;14501;52.282;10.560;2023-07-31T05:56:35;6.07;;;2.00;;
26946;SDS011;14501;52.282;10.560;2023-07-31T05:59:01;2.85;;;1.83;;
26946;SDS011;14501;52.282;10.560;2023-07-31T06:01:27;2.30;;;1.40;;
26946;SDS011;14501;52.282;10.560;2023-07-31T06:03:53;8.30;;;1.80;;
26946;SDS011;14501;52.282;10.560;2023-07-31T06:06:19;2.58;;;1.52;;
26946;SDS011;14501;52.282;10.560;2023-07-31T06:08:45;4.03;;;1.90;;
26946;SDS011;14501;52.282;10.560;2023-07-31T06:11:10;3.08;;;2.08;;
26946;SDS011;14501;52.282;10.560;2023-07-31T06:13:36;3.40;;;1.85;;
26946;SDS011;14501;52.282;10.560;2023-07-31T06:16:02;1.80;;;1.65;;
26946;SDS011;14501;52.282;10.560;2023-07-31T06:18:32;2.95;;;2.05;;
26946;SDS011;14501;52.282;10.560;2023-07-31T06:20:58;3.78;;;2.10;;
26946;SDS011;14501;52.282;10.560;2023-07-31T06:23:23;4.57;;;2.40;;
26946;SDS011;14501;52.282;10.560;2023-07-31T06:25:49;4.85;;;2.90;;
26946;SDS011;14501;52.282;10.560;2023-07-31T06:28:15;6.22;;;3.47;;
26946;SDS011;14501;52.282;10.560;2023-07-31T06:30:40;6.10;;;3.17;;
26946;SDS011;14501;52.282;10.560;2023-07-31T06:33:06;9.48;;;3.20;;
26946;SDS011;14501;52.282;10.560;2023-07-31T06:35:31;8.85;;;3.33;;
26946;SDS011;14501;52.282;10.560;2023-07-31T06:37:57;8.13;;;4.15;;
26946;SDS011;14501;52.282;10.560;2023-07-31T06:40:22;8.05;;;3.72;;
26946;SDS011;14501;52.282;10.560;2023-07-31T06:42:48;9.27;;;4.10;;
26946;SDS011;14501;52.282;10.560;2023-07-31T06:45:14;8.52;;;4.60;;
26946;SDS011;14501;52.282;10.560;2023-07-31T06:47:39;7.70;;;4.38;;
26946;SDS011;14501;52.282;10.560;2023-07-31T06:50:05;7.63;;;4.50;;
26946;SDS011;14501;52.282;10.560;2023-07-31T06:52:32;8.38;;;4.75;;
26946;SDS011;14501;52.282;10.560;2023-07-31T06:55:14;7.68;;;4.55;;
26946;SDS011;14501;52.282;10.560;2023-07-31T06:57:43;7.63;;;4.80;;
26946;SDS011;14501;52.282;10.560;2023-07-31T07:00:09;10.73;;;5.38;;
26946;SDS011;14501;52.282;10.560;2023-07-31T07:02:35;8.32;;;4.63;;
26946;SDS011;14501;52.282;10.560;2023-07-31T07:05:00;5.78;;;4.25;;
26946;SDS011;14501;52.282;10.560;2023-07-31T07:07:26;8.88;;;5.03;;
26946;SDS011;14501;52.282;10.560;2023-07-31T07:09:52;11.05;;;4.82;;
26946;SDS011;14501;52.282;10.560;2023-07-31T07:12:17;8.23;;;4.55;;
26946;SDS011;14501;52.282;10.560;2023-07-31T07:14:43;8.10;;;4.25;;
26946;SDS011;14501;52.282;10.560;2023-07-31T07:17:10;9.45;;;4.22;;
26946;SDS011;14501;52.282;10.560;2023-07-31T07:19:36;11.73;;;4.82;;
26946;SDS011;14501;52.282;10.560;2023-07-31T07:22:05;12.30;;;6.30;;
26946;SDS011;14501;52.282;10.560;2023-07-31T07:24:31;11.27;;;5.50;;
26946;SDS011;14501;52.282;10.560;2023-07-31T07:26:56;10.65;;;5.88;;
26946;SDS011;14501;52.282;10.560;2023-07-31T07:29:22;15.45;;;6.55;;
26946;SDS011;14501;52.282;10.560;2023-07-31T07:31:47;8.93;;;6.68;;
26946;SDS011;14501;52.282;10.560;2023-07-31T07:34:13;16.17;;;6.82;;
26946;SDS011;14501;52.282;10.560;2023-07-31T07:36:38;16.02;;;6.63;;
26946;SDS011;14501;52.282;10.560;2023-07-31T07:39:04;12.32;;;5.82;;
26946;SDS011;14501;52.282;10.560;2023-07-31T07:41:30;17.30;;;7.13;;
26946;SDS011;14501;52.282;10.560;2023-07-31T07:43:56;10.90;;;7.20;;
26946;SDS011;14501;52.282;10.560;2023-07-31T07:46:21;11.70;;;6.82;;
26946;SDS011;14501;52.282;10.560;2023-07-31T07:48:48;13.25;;;8.23;;
26946;SDS011;14501;52.282;10.560;2023-07-31T07:51:13;14.93;;;7.78;;
26946;SDS011;14501;52.282;10.560;2023-07-31T07:53:39;14.63;;;7.82;;
26946;SDS011;14501;52.282;10.560;2023-07-31T07:56:04;16.80;;;7.65;;
26946;SDS011;14501;52.282;10.560;2023-07-31T07:58:30;15.38;;;8.52;;
26946;SDS011;14501;52.282;10.560;2023-07-31T08:00:56;17.20;;;8.30;;
26946;SDS011;14501;52.282;10.560;2023-07-31T08:03:21;16.38;;;7.85;;
26946;SDS011;14501;52.282;10.560;2023-07-31T08:05:47;16.13;;;8.40;;
26946;SDS011;14501;52.282;10.560;2023-07-31T08:08:16;13.57;;;8.10;;
26946;SDS011;14501;52.282;10.560;2023-07-31T08:10:42;17.58;;;8.00;;
26946;SDS011;14501;52.282;10.560;2023-07-31T08:13:07;14.70;;;8.32;;
26946;SDS011;14501;52.282;10.560;2023-07-31T08:15:34;14.18;;;7.88;;
26946;SDS011;14501;52.282;10.560;2023-07-31T08:17:59;14.93;;;8.50;;
26946;SDS011;14501;52.282;10.560;2023-07-31T08:20:26;13.70;;;7.10;;
26946;SDS011;14501;52.282;10.560;2023-07-31T08:22:51;11.68;;;6.50;;
26946;SDS011;14501;52.282;10.560;2023-07-31T08:25:18;1999.90;;;999.90;;
26946;SDS011;14501;52.282;10.560;2023-07-31T08:27:43;1999.90;;;999.90;;
26946;SDS011;14501;52.282;10.560;2023-07-31T08:30:10;1999.90;;;999.90;;
26946;SDS011;14501;52.282;10.560;2023-07-31T08:32:36;1999.90;;;999.90;;
26946;SDS011;14501;52.282;10.560;2023-07-31T08:35:02;1999.90;;;999.90;;
26946;SDS011;14501;52.282;10.560;2023-07-31T08:37:28;1999.90;;;999.90;;
26946;SDS011;14501;52.282;10.560;2023-07-31T08:39:53;9.15;;;5.00;;
26946;SDS011;14501;52.282;10.560;2023-07-31T08:42:19;10.88;;;4.72;;
26946;SDS011;14501;52.282;10.560;2023-07-31T08:44:45;8.18;;;4.72;;
26946;SDS011;14501;52.282;10.560;2023-07-31T08:47:12;11.10;;;4.63;;
26946;SDS011;14501;52.282;10.560;2023-07-31T08:49:38;8.65;;;4.43;;
26946;SDS011;14501;52.282;10.560;2023-07-31T08:52:06;9.88;;;5.35;;
26946;SDS011;14501;52.282;10.560;2023-07-31T08:54:32;11.20;;;5.20;;
26946;SDS011;14501;52.282;10.560;2023-07-31T08:56:58;11.50;;;5.53;;
26946;SDS011;14501;52.282;10.560;2023-07-31T08:59:25;9.70;;;4.72;;
26946;SDS011;14501;52.282;10.560;2023-07-31T09:01:56;11.02;;;5.18;;
26946;SDS011;14501;52.282;10.560;2023-07-31T09:04:25;10.77;;;5.13;;
26946;SDS011;14501;52.282;10.560;2023-07-31T09:06:52;11.70;;;9.70;;
26946;SDS011;14501;52.282;10.560;2023-07-31T09:09:22;13.95;;;6.53;;
26946;SDS011;14501;52.282;10.560;2023-07-31T09:11:49;1281.13;;;287.52;;
26946;SDS011;14501;52.282;10.560;2023-07-31T09:14:15;10.32;;;4.85;;
26946;SDS011;14501;52.282;10.560;2023-07-31T09:16:57;12.48;;;5.55;;
26946;SDS011;14501;52.282;10.560;2023-07-31T09:19:29;9.15;;;5.18;;
26946;SDS011;14501;52.282;10.560;2023-07-31T09:21:59;10.20;;;5.50;;
26946;SDS011;14501;52.282;10.560;2023-07-31T09:24:25;10.15;;;5.55;;
26946;SDS011;14501;52.282;10.560;2023-07-31T09:26:55;13.50;;;5.85;;
26946;SDS011;14501;52.282;10.560;2023-07-31T09:29:22;8.65;;;5.07;;
26946;SDS011;14501;52.282;10.560;2023-07-31T09:31:48;9.88;;;5.40;;
26946;SDS011;14501;52.282;10.560;2023-07-31T09:34:13;10.10;;;4.50;;
26946;SDS011;14501;52.282;10.560;2023-07-31T09:36:43;9.93;;;4.93;;
26946;SDS011;14501;52.282;10.560;2023-07-31T09:39:10;8.80;;;4.40;;
26946;SDS011;14501;52.282;10.560;2023-07-31T09:41:41;13.63;;;5.05;;
26946;SDS011;14501;52.282;10.560;2023-07-31T09:44:09;6.70;;;4.18;;
26946;SDS011;14501;52.282;10.560;2023-07-31T09:46:35;10.93;;;3.83;;
26946;SDS011;14501;52.282;10.560;2023-07-31T09:49:11;9.90;;;3.88;;
26946;SDS011;14501;52.282;10.560;2023-07-31T09:51:38;9.23;;;4.20;;
26946;SDS011;14501;52.282;10.560;2023-07-31T09:54:15;9.32;;;4.25;;
26946;SDS011;14501;52.282;10.560;2023-07-31T09:56:48;5.93;;;3.28;;
26946;SDS011;14501;52.282;10.560;2023-07-31T09:59:15;7.25;;;3.92;;
26946;SDS011;14501;52.282;10.560;2023-07-31T10:01:42;6.38;;;4.25;;
26946;SDS011;14501;52.282;10.560;2023-07-31T10:04:10;9.95;;;4.68;;
26946;SDS011;14501;52.282;10.560;2023-07-31T10:06:37;10.57;;;3.90;;
26946;SDS011;14501;52.282;10.560;2023-07-31T10:09:05;9.23;;;4.75;;
26946;SDS011;14501;52.282;10.560;2023-07-31T10:11:37;7.15;;;4.00;;
26946;SDS011;14501;52.282;10.560;2023-07-31T10:14:06;10.80;;;4.07;;
26946;SDS011;14501;52.282;10.560;2023-07-31T10:16:34;8.60;;;4.28;;
26946;SDS011;14501;52.282;10.560;2023-07-31T10:19:02;7.97;;;4.50;;
26946;SDS011;14501;52.282;10.560;2023-07-31T10:21:29;8.43;;;4.20;;
26946;SDS011;14501;52.282;10.560;2023-07-31T10:23:59;8.05;;;4.15;;
26946;SDS011;14501;52.282;10.560;2023-07-31T10:26:28;7.90;;;3.47;;
26946;SDS011;14501;52.282;10.560;2023-07-31T10:28:55;7.13;;;3.38;;
26946;SDS011;14501;52.282;10.560;2023-07-31T10:31:22;6.63;;;4.03;;
26946;SDS011;14501;52.282;10.560;2023-07-31T10:33:49;9.20;;;3.47;;
26946;SDS011;14501;52.282;10.560;2023-07-31T10:36:19;8.80;;;3.60;;
26946;SDS011;14501;52.282;10.560;2023-07-31T10:38:46;9.10;;;3.42;;
26946;SDS011;14501;52.282;10.560;2023-07-31T10:41:14;5.82;;;3.03;;
26946;SDS011;14501;52.282;10.560;2023-07-31T10:43:40;4.93;;;2.67;;
26946;SDS011;14501;52.282;10.560;2023-07-31T10:46:09;4.85;;;2.60;;
26946;SDS011;14501;52.282;10.560;2023-07-31T10:48:38;4.90;;;2.60;;
26946;SDS011;14501;52.282;10.560;2023-07-31T10:51:10;7.93;;;3.17;;
26946;SDS011;14501;52.282;10.560;2023-07-31T10:53:41;2.90;;;2.13;;
26946;SDS011;14501;52.282;10.560;2023-07-31T10:56:10;4.13;;;2.47;;
26946;SDS011;14501;52.282;10.560;2023-07-31T10:58:44;6.75;;;2.30;;
26946;SDS011;14501;52.282;10.560;2023-07-31T11:01:11;3.03;;;2.20;;
26946;SDS011;14501;52.282;10.560;2023-07-31T11:03:49;5.72;;;1.92;;
26946;SDS011;14501;52.282;10.560;2023-07-31T11:06:18;4.72;;;2.50;;
26946;SDS011;14501;52.282;10.560;2023-07-31T11:08:47;3.63;;;2.25;;
26946;SDS011;14501;52.282;10.560;2023-07-31T11:11:16;3.38;;;2.22;;
26946;SDS011;14501;52.282;10.560;2023-07-31T11:13:46;6.40;;;2.60;;
26946;SDS011;14501;52.282;10.560;2023-07-31T11:16:15;5.25;;;2.10;;
26946;SDS011;14501;52.282;10.560;2023-07-31T11:18:41;5.80;;;2.20;;
26946;SDS011;14501;52.282;10.560;2023-07-31T11:21:11;4.43;;;2.28;;
26946;SDS011;14501;52.282;10.560;2023-07-31T11:23:45;7.78;;;2.40;;
26946;SDS011;14501;52.282;10.560;2023-07-31T11:26:14;4.05;;;2.35;;
26946;SDS011;14501;52.282;10.560;2023-07-31T11:28:41;3.03;;;2.15;;
26946;SDS011;14501;52.282;10.560;2023-07-31T11:31:09;3.72;;;2.15;;
26946;SDS011;14501;52.282;10.560;2023-07-31T11:33:35;3.58;;;2.28;;
26946;SDS011;14501;52.282;10.560;2023-07-31T11:36:01;4.32;;;2.30;;
26946;SDS011;14501;52.282;10.560;2023-07-31T11:38:28;5.10;;;2.63;;
26946;SDS011;14501;52.282;10.560;2023-07-31T11:40:55;6.18;;;2.70;;
26946;SDS011;14501;52.282;10.560;2023-07-31T11:43:24;3.30;;;2.30;;
26946;SDS011;14501;52.282;10.560;2023-07-31T11:45:51;3.30;;;2.05;;
26946;SDS011;14501;52.282;10.560;2023-07-31T11:48:23;4.90;;;2.47;;
26946;SDS011;14501;52.282;10.560;2023-07-31T11:50:53;3.13;;;2.00;;
26946;SDS011;14501;52.282;10.560;2023-07-31T11:53:30;3.95;;;2.08;;
26946;SDS011;14501;52.282;10.560;2023-07-31T11:56:00;3.33;;;2.28;;
26946;SDS011;14501;52.282;10.560;2023-07-31T11:58:29;4.65;;;2.75;;
26946;SDS011;14501;52.282;10.560;2023-07-31T12:00:56;3.53;;;2.40;;
26946;SDS011;14501;52.282;10.560;2023-07-31T12:03:24;3.95;;;2.33;;
26946;SDS011;14501;52.282;10.560;2023-07-31T12:05:50;4.35;;;2.25;;
26946;SDS011;14501;52.282;10.560;2023-07-31T12:08:18;5.03;;;2.80;;
26946;SDS011;14501;52.282;10.560;2023-07-31T12:10:46;3.72;;;2.38;;
26946;SDS011;14501;52.282;10.560;2023-07-31T12:13:24;4.40;;;2.40;;
26946;SDS011;14501;52.282;10.560;2023-07-31T12:15:54;2.92;;;2.35;;
26946;SDS011;14501;52.282;10.560;2023-07-31T12:18:22;4.22;;;2.88;;
26946;SDS011;14501;52.282;10.560;2023-07-31T12:20:49;250.93;;;46.15;;
26946;SDS011;14501;52.282;10.560;2023-07-31T12:23:23;52.33;;;5.75;;
26946;SDS011;14501;52.282;10.560;2023-07-31T12:26:00;82.10;;;5.57;;
26946;SDS011;14501;52.282;10.560;2023-07-31T12:28:32;226.60;;;37.92;;
26946;SDS011;14501;52.282;10.560;2023-07-31T12:31:06;829.13;;;84.20;;
26946;SDS011;14501;52.282;10.560;2023-07-31T12:33:34;3.25;;;2.10;;
26946;SDS011;14501;52.282;10.560;2023-07-31T12:36:01;4.47;;;2.22;;
26946;SDS011;14501;52.282;10.560;2023-07-31T12:38:28;3.03;;;2.17;;
26946;SDS011;14501;52.282;10.560;2023-07-31T12:40:54;3.30;;;2.20;;
26946;SDS011;14501;52.282;10.560;2023-07-31T12:43:20;2.83;;;1.90;;
26946;SDS011;14501;52.282;10.560;2023-07-31T12:45:45;5.80;;;2.33;;
26946;SDS011;14501;52.282;10.560;2023-07-31T12:48:12;3.13;;;2.15;;
26946;SDS011;14501;52.282;10.560;2023-07-31T12:50:38;4.40;;;2.00;;
26946;SDS011;14501;52.282;10.560;2023-07-31T12:53:04;3.20;;;1.95;;
26946;SDS011;14501;52.282;10.560;2023-07-31T12:55:30;3.03;;;2.00;;
26946;SDS011;14501;52.282;10.560;2023-07-31T12:57:57;2.38;;;2.10;;
26946;SDS011;14501;52.282;10.560;2023-07-31T13:00:23;2.80;;;2.03;;
26946;SDS011;14501;52.282;10.560;2023-07-31T13:02:48;3.00;;;2.15;;
26946;SDS011;14501;52.282;10.560;2023-07-31T13:05:14;2.88;;;1.73;;
26946;SDS011;14501;52.282;10.560;2023-07-31T13:07:40;4.22;;;2.10;;
26946;SDS011;14501;52.282;10.560;2023-07-31T13:10:07;2.97;;;2.03;;
26946;SDS011;14501;52.282;10.560;2023-07-31T13:12:33;4.93;;;1.83;;
26946;SDS011;14501;52.282;10.560;2023-07-31T13:14:59;3.22;;;1.67;;
26946;SDS011;14501;52.282;10.560;2023-07-31T13:17:25;2.85;;;2.00;;
26946;SDS011;14501;52.282;10.560;2023-07-31T13:19:51;3.35;;;1.63;;
26946;SDS011;14501;52.282;10.560;2023-07-31T13:22:18;3.33;;;1.60;;
26946;SDS011;14501;52.282;10.560;2023-07-31T13:24:44;2.47;;;1.90;;
26946;SDS011;14501;52.282;10.560;2023-07-31T13:27:09;3.58;;;1.83;;
26946;SDS011;14501;52.282;10.560;2023-07-31T13:29:35;2.20;;;1.58;;
26946;SDS011;14501;52.282;10.560;2023-07-31T13:32:00;3.70;;;1.48;;
26946;SDS011;14501;52.282;10.560;2023-07-31T13:34:26;2.25;;;1.40;;
26946;SDS011;14501;52.282;10.560;2023-07-31T13:36:53;2.90;;;1.58;;
26946;SDS011;14501;52.282;10.560;2023-07-31T13:39:19;2.00;;;1.60;;
26946;SDS011;14501;52.282;10.560;2023-07-31T13:41:44;1.27;;;1.13;;
26946;SDS011;14501;52.282;10.560;2023-07-31T13:44:10;3.65;;;1.77;;
26946;SDS011;14501;52.282;10.560;2023-07-31T13:46:36;1.90;;;0.98;;
26946;SDS011;14501;52.282;10.560;2023-07-31T13:49:01;2.38;;;1.15;;
26946;SDS011;14501;52.282;10.560;2023-07-31T13:51:27;0.93;;;0.68;;
26946;SDS011;14501;52.282;10.560;2023-07-31T13:53:53;2.15;;;1.02;;
26946;SDS011;14501;52.282;10.560;2023-07-31T13:56:19;2.25;;;0.80;;
26946;SDS011;14501;52.282;10.560;2023-07-31T13:58:44;1.30;;;0.75;;
26946;SDS011;14501;52.282;10.560;2023-07-31T14:01:10;1.63;;;0.60;;
26946;SDS011;14501;52.282;10.560;2023-07-31T14:03:35;1.30;;;0.90;;
26946;SDS011;14501;52.282;10.560;2023-07-31T14:06:01;2.92;;;0.68;;
26946;SDS011;14501;52.282;10.560;2023-07-31T14:08:27;0.63;;;0.60;;
26946;SDS011;14501;52.282;10.560;2023-07-31T14:10:52;1.02;;;0.60;;
26946;SDS011;14501;52.282;10.560;2023-07-31T14:13:18;0.70;;;0.40;;
26946;SDS011;14501;52.282;10.560;2023-07-31T14:15:44;1.50;;;0.60;;
26946;SDS011;14501;52.282;10.560;2023-07-31T14:18:09;1.58;;;0.82;;
26946;SDS011;14501;52.282;10.560;2023-07-31T14:20:35;0.73;;;0.65;;
26946;SDS011;14501;52.282;10.560;2023-07-31T14:23:02;1.02;;;0.80;;
26946;SDS011;14501;52.282;10.560;2023-07-31T14:25:27;1.88;;;0.60;;
26946;SDS011;14501;52.282;10.560;2023-07-31T14:27:53;1.48;;;0.63;;
26946;SDS011;14501;52.282;10.560;2023-07-31T14:30:18;0.70;;;0.70;;
26946;SDS011;14501;52.282;10.560;2023-07-31T14:32:45;1.20;;;0.70;;
26946;SDS011;14501;52.282;10.560;2023-07-31T14:35:11;0.90;;;0.80;;
26946;SDS011;14501;52.282;10.560;2023-07-31T14:37:40;2.60;;;0.85;;